Terminal Aerodrome Forecast
Issued by NWS

Home | Current Version | Previous Version | Text Only | Print | Product List | Glossary On
Versions: 1 2 3 4 5 6 7 8 9 10 11 12 13 14 15
046
FTUS44 KJAN 262357
TAFHKS
TAF
KHKS 262357Z 2700/2724 14007KT P6SM SCT100
     FM271100 15006KT P6SM VCSH BKN015 OVC050
     FM271300 14006KT 5SM SHRA BR VCTS BKN012CB OVC020
     FM271800 15008KT 6SM -SHRA BR BKN010 BKN030
     FM272100 16008KT P6SM SCT030 BKN100=

USA.gov is the U.S. government's official web portal to all federal, state and local government web resources and services.